createdAt,value
2023-04-19T00:00:19.907Z,102191.28
2023-04-19T00:02:49.194Z,102176.75
2023-04-19T00:05:18.567Z,102184.53
2023-04-19T00:07:47.132Z,102183.75
2023-04-19T00:10:16.291Z,102179.44
2023-04-19T00:12:43.988Z,102182.84
2023-04-19T00:15:11.849Z,102182.31
2023-04-19T00:17:39.726Z,102180.03
2023-04-19T00:20:08.367Z,102186.63
2023-04-19T00:22:36.192Z,102183.09
2023-04-19T00:25:04.031Z,102174.41
2023-04-19T00:27:33.445Z,102177.56
2023-04-19T00:30:02.723Z,102178.66
2023-04-19T00:32:30.533Z,102184.94
2023-04-19T00:34:58.335Z,102168.13
2023-04-19T00:37:26.079Z,102170.47
2023-04-19T00:39:53.803Z,102169.16
2023-04-19T00:42:21.511Z,102170.38
2023-04-19T00:44:50.577Z,102171.84
2023-04-19T00:47:18.591Z,102161.47
2023-04-19T00:49:46.500Z,102169.56
2023-04-19T00:52:14.215Z,102159.94
2023-04-19T00:54:44.478Z,102171.28
2023-04-19T00:57:12.278Z,102166.22
2023-04-19T00:59:40.258Z,102164.63
2023-04-19T01:02:10.414Z,102176.66
2023-04-19T01:04:38.362Z,102169.00
2023-04-19T01:07:07.028Z,102165.84
2023-04-19T01:09:34.936Z,102172.09
2023-04-19T01:12:03.346Z,102168.06
2023-04-19T01:14:31.055Z,102166.47
2023-04-19T01:16:58.887Z,102164.94
2023-04-19T01:19:27.991Z,102162.97
2023-04-19T01:21:56.399Z,102174.53
2023-04-19T01:24:25.603Z,102166.72
2023-04-19T01:26:53.415Z,102172.16
2023-04-19T01:29:22.145Z,102159.38
2023-04-19T01:31:53.635Z,102165.19
2023-04-19T01:34:23.104Z,102165.56
2023-04-19T01:36:50.893Z,102166.25
2023-04-19T01:39:18.625Z,102169.81
2023-04-19T01:41:47.801Z,102174.78
2023-04-19T01:44:15.750Z,102175.75
2023-04-19T01:46:43.794Z,102177.06
2023-04-19T01:49:11.518Z,102172.41
2023-04-19T01:51:39.552Z,102177.38
2023-04-19T01:54:07.266Z,102181.47
2023-04-19T01:56:35.052Z,102183.41
2023-04-19T01:59:04.186Z,102187.44
2023-04-19T02:01:31.941Z,102179.38
2023-04-19T02:04:00.107Z,102166.50
2023-04-19T02:06:27.941Z,102170.56
2023-04-19T02:08:55.658Z,102179.03
2023-04-19T02:11:23.378Z,102169.19
2023-04-19T02:13:51.171Z,102172.78
2023-04-19T02:16:20.342Z,102162.94
2023-04-19T02:18:48.241Z,102165.56
2023-04-19T02:21:16.019Z,102168.22
2023-04-19T02:23:44.157Z,102172.03
2023-04-19T02:26:13.023Z,102167.41
2023-04-19T02:28:40.879Z,102173.50
2023-04-19T02:31:08.900Z,102174.13
2023-04-19T02:33:38.022Z,102178.38
2023-04-19T02:36:06.019Z,102175.41
2023-04-19T02:38:33.763Z,102176.03
2023-04-19T02:41:04.345Z,102177.00
2023-04-19T02:43:32.160Z,102184.81
2023-04-19T02:45:59.851Z,102173.66
2023-04-19T02:48:27.621Z,102185.88
2023-04-19T02:50:56.826Z,102180.41
2023-04-19T02:53:24.547Z,102184.56
2023-04-19T02:55:52.332Z,102185.88
2023-04-19T02:58:20.153Z,102175.59
2023-04-19T03:00:47.901Z,102191.66
2023-04-19T03:03:15.870Z,102185.81
2023-04-19T03:05:43.679Z,102176.75
2023-04-19T03:08:12.884Z,102182.69
2023-04-19T03:10:40.734Z,102171.31
2023-04-19T03:13:08.519Z,102179.00
2023-04-19T03:15:36.255Z,102179.13
2023-04-19T03:18:04.135Z,102175.72
2023-04-19T03:20:32.072Z,102173.13
2023-04-19T03:22:59.902Z,102173.16
2023-04-19T03:25:29.120Z,102176.50
2023-04-19T03:27:57.547Z,102177.72
2023-04-19T03:30:25.340Z,102179.50
2023-04-19T03:32:53.571Z,102163.91
2023-04-19T03:35:22.369Z,102165.41
2023-04-19T03:37:50.062Z,102170.88
2023-04-19T03:40:18.042Z,102166.38
2023-04-19T03:42:47.168Z,102177.31
2023-04-19T03:45:14.936Z,102163.44
2023-04-19T03:47:42.795Z,102166.00
2023-04-19T03:50:11.385Z,102180.47
2023-04-19T03:52:39.129Z,102174.81
2023-04-19T03:55:07.687Z,102174.56
2023-04-19T03:57:35.395Z,102173.66
2023-04-19T04:00:07.106Z,102175.81
2023-04-19T04:02:35.034Z,102173.69
2023-04-19T04:05:03.038Z,102180.44
2023-04-19T04:07:30.932Z,102169.63
2023-04-19T04:09:58.952Z,102184.28
2023-04-19T04:12:26.707Z,102187.56
2023-04-19T04:14:54.365Z,102195.34
2023-04-19T04:17:24.291Z,102200.66
2023-04-19T04:19:52.112Z,102194.53
2023-04-19T04:22:20.015Z,102189.97
2023-04-19T04:24:49.228Z,102198.78
2023-04-19T04:27:20.329Z,102195.69
2023-04-19T04:29:49.487Z,102204.41
2023-04-19T04:32:18.218Z,102194.19
2023-04-19T04:34:47.325Z,102198.34
2023-04-19T04:37:15.067Z,102191.50
2023-04-19T04:39:43.000Z,102188.28
2023-04-19T04:42:10.668Z,102193.22
2023-04-19T04:44:38.879Z,102188.47
2023-04-19T04:47:07.144Z,102199.38
2023-04-19T04:49:34.931Z,102202.28
2023-04-19T04:52:04.210Z,102203.84
2023-04-19T04:54:31.922Z,102211.44
2023-04-19T04:57:00.936Z,102209.38
2023-04-19T04:59:28.776Z,102205.28
2023-04-19T05:01:56.605Z,102214.78
2023-04-19T05:04:24.471Z,102216.69
2023-04-19T05:06:52.300Z,102210.47
2023-04-19T05:09:21.503Z,102224.81
2023-04-19T05:11:49.203Z,102218.06
2023-04-19T05:14:17.033Z,102209.06
2023-04-19T05:16:44.987Z,102220.94
2023-04-19T05:19:12.816Z,102223.59
2023-04-19T05:21:40.740Z,102215.84
2023-04-19T05:24:10.035Z,102216.97
2023-04-19T05:26:39.371Z,102215.59
2023-04-19T05:29:07.118Z,102217.25
2023-04-19T05:31:34.865Z,102227.56
2023-04-19T05:34:02.606Z,102226.00
2023-04-19T05:36:30.706Z,102229.31
2023-04-19T05:38:58.389Z,102229.41
2023-04-19T05:41:26.137Z,102225.41
2023-04-19T05:43:55.190Z,102231.81
2023-04-19T05:46:22.938Z,102222.94
2023-04-19T05:48:50.695Z,102225.09
2023-04-19T05:51:18.974Z,102228.00
2023-04-19T05:53:47.095Z,102225.56
2023-04-19T05:56:14.859Z,102230.31
2023-04-19T05:58:42.601Z,102231.72
2023-04-19T06:01:11.748Z,102233.75
2023-04-19T06:03:39.686Z,102243.13
2023-04-19T06:06:08.229Z,102217.81
2023-04-19T06:08:36.115Z,102231.06
2023-04-19T06:11:15.869Z,102226.34
2023-04-19T06:13:51.395Z,102235.63
2023-04-19T06:16:20.840Z,102220.34
2023-04-19T06:18:48.597Z,102236.13
2023-04-19T06:21:17.010Z,102233.78
2023-04-19T06:23:44.741Z,102228.63
2023-04-19T06:26:12.455Z,102226.78
2023-04-19T06:28:40.230Z,102224.53
2023-04-19T06:31:08.875Z,102224.41
2023-04-19T06:33:38.129Z,102211.38
2023-04-19T06:36:06.610Z,102228.34
2023-04-19T06:38:34.330Z,102211.50
2023-04-19T06:41:02.006Z,102225.03
2023-04-19T06:43:29.753Z,102221.66
2023-04-19T06:45:59.570Z,102221.44
2023-04-19T06:48:27.788Z,102222.75
2023-04-19T06:50:56.932Z,102230.38
2023-04-19T06:53:25.057Z,102231.31
2023-04-19T06:55:59.714Z,102232.03
2023-04-19T06:58:27.641Z,102226.19
2023-04-19T07:00:55.814Z,102226.41
2023-04-19T07:03:23.663Z,102226.59
2023-04-19T07:05:52.375Z,102221.91
2023-04-19T07:08:21.448Z,102230.25
2023-04-19T07:10:49.136Z,102237.34
2023-04-19T07:13:16.846Z,102222.25
2023-04-19T07:15:44.612Z,102240.31
2023-04-19T07:18:14.915Z,102237.28
2023-04-19T07:20:44.951Z,102218.09
2023-04-19T07:23:12.957Z,102221.09
2023-04-19T07:25:42.050Z,102238.44
2023-04-19T07:28:09.819Z,102213.84
2023-04-19T07:30:37.840Z,102204.25
2023-04-19T07:33:05.957Z,102208.13
2023-04-19T07:35:33.828Z,102200.44
2023-04-19T07:38:01.849Z,102225.47
2023-04-19T07:40:29.651Z,102215.16
2023-04-19T07:42:58.792Z,102213.09
2023-04-19T07:45:26.544Z,102202.47
2023-04-19T07:47:54.215Z,102181.03
2023-04-19T07:50:23.242Z,102202.50
2023-04-19T07:52:51.155Z,102199.09
2023-04-19T07:55:18.953Z,102192.44
2023-04-19T07:57:48.435Z,102199.47
2023-04-19T08:00:18.618Z,102193.97
2023-04-19T08:02:47.022Z,102190.16
2023-04-19T08:05:17.065Z,102188.94
2023-04-19T08:07:44.960Z,102187.31
2023-04-19T08:10:13.122Z,102185.84
2023-04-19T08:12:50.662Z,102206.09
2023-04-19T08:18:01.712Z,102187.81
2023-04-19T08:20:29.498Z,102195.59
2023-04-19T08:22:59.074Z,102186.84
2023-04-19T08:25:28.672Z,102184.72
2023-04-19T08:27:57.419Z,102182.50
2023-04-19T08:30:25.307Z,102182.16
2023-04-19T08:32:56.836Z,102195.03
2023-04-19T08:35:25.320Z,102184.69
2023-04-19T08:37:53.143Z,102180.56
2023-04-19T08:40:20.967Z,102184.63
2023-04-19T08:42:48.734Z,102167.09
2023-04-19T08:45:27.816Z,102172.41
2023-04-19T08:48:01.216Z,102173.63
2023-04-19T08:53:09.046Z,102179.16
2023-04-19T08:58:30.707Z,102161.53
2023-04-19T09:01:06.239Z,102168.44
2023-04-19T09:03:44.178Z,102176.19
2023-04-19T09:06:19.298Z,102168.94
2023-04-19T09:08:47.223Z,102184.13
2023-04-19T09:11:14.952Z,102170.72
2023-04-19T09:13:44.536Z,102152.22
2023-04-19T09:16:24.786Z,102159.56
2023-04-19T09:19:08.540Z,102166.47
2023-04-19T09:21:47.830Z,102149.66
2023-04-19T09:24:15.733Z,102146.41
2023-04-19T09:26:55.007Z,102158.53
2023-04-19T09:29:22.903Z,102159.66
2023-04-19T09:31:58.337Z,102155.56
2023-04-19T09:34:28.835Z,102140.94
2023-04-19T09:37:04.757Z,102150.41
2023-04-19T09:39:39.564Z,102153.09
2023-04-19T09:42:07.432Z,102156.66
2023-04-19T09:47:23.299Z,102132.22
2023-04-19T09:50:18.759Z,102123.38
2023-04-19T09:52:50.685Z,102141.56
2023-04-19T09:57:49.797Z,102135.31
2023-04-19T10:00:17.988Z,102127.00
2023-04-19T10:02:48.780Z,102116.66
2023-04-19T10:07:25.157Z,102122.75
2023-04-19T10:12:45.546Z,102111.63
2023-04-19T10:15:07.860Z,102113.38
2023-04-19T10:17:36.039Z,102114.16
2023-04-19T10:20:08.204Z,102112.47
2023-04-19T10:22:38.762Z,102092.06
2023-04-19T10:25:11.043Z,102086.97
2023-04-19T10:27:38.816Z,102077.91
2023-04-19T10:30:12.677Z,102093.91
2023-04-19T10:32:41.709Z,102086.97
2023-04-19T10:35:10.238Z,102103.63
2023-04-19T10:37:42.852Z,102067.84
2023-04-19T10:40:12.361Z,102062.03
2023-04-19T10:43:16.520Z,102050.97
2023-04-19T10:45:44.657Z,102071.06
2023-04-19T10:48:34.156Z,102063.81
2023-04-19T10:51:03.225Z,102053.72
2023-04-19T10:53:51.804Z,102016.94
2023-04-19T10:56:21.010Z,102032.94
2023-04-19T10:59:22.871Z,102026.91
2023-04-19T11:01:53.211Z,102025.03
2023-04-19T11:04:27.446Z,102010.09
2023-04-19T11:07:03.604Z,102012.13
2023-04-19T11:09:35.255Z,102005.53
2023-04-19T11:12:05.444Z,102003.78
2023-04-19T11:14:36.258Z,101999.56
2023-04-19T11:17:06.262Z,102009.19
2023-04-19T11:19:34.059Z,101975.81
2023-04-19T11:22:01.753Z,102002.78
2023-04-19T11:24:29.498Z,101990.75
2023-04-19T11:26:58.974Z,101990.63
2023-04-19T11:29:26.734Z,101994.28
2023-04-19T11:31:54.507Z,101990.41
2023-04-19T11:34:24.422Z,101977.50
2023-04-19T11:36:53.171Z,101994.59
2023-04-19T11:39:21.530Z,101978.56
2023-04-19T11:41:49.261Z,101970.69
2023-04-19T11:44:20.921Z,101986.59
2023-04-19T11:47:05.131Z,101965.56
2023-04-19T11:49:34.040Z,101957.38
2023-04-19T11:52:05.596Z,101969.25
2023-04-19T11:54:34.458Z,101969.44
2023-04-19T11:57:04.469Z,101962.69
2023-04-19T11:59:34.676Z,101947.25
2023-04-19T12:02:09.741Z,101963.16
2023-04-19T12:04:38.713Z,101959.72
2023-04-19T12:07:07.418Z,101959.09
2023-04-19T12:09:36.890Z,101940.06
2023-04-19T12:12:05.035Z,101954.06
2023-04-19T12:14:34.342Z,101945.84
2023-04-19T12:17:09.916Z,101956.69
2023-04-19T12:19:38.720Z,101938.50
2023-04-19T12:22:10.718Z,101934.44
2023-04-19T12:24:38.916Z,101923.78
2023-04-19T12:27:07.120Z,101933.16
2023-04-19T12:29:36.696Z,101954.22
2023-04-19T12:32:05.145Z,101926.56
2023-04-19T12:34:32.904Z,101935.63
2023-04-19T12:37:00.900Z,101901.06
2023-04-19T12:39:29.305Z,101908.53
2023-04-19T12:41:57.274Z,101923.19
2023-04-19T12:44:25.029Z,101905.88
2023-04-19T12:46:57.451Z,101914.19
2023-04-19T12:49:25.458Z,101899.13
2023-04-19T12:51:54.651Z,101916.31
2023-04-19T12:54:24.359Z,101908.44
2023-04-19T12:56:52.444Z,101893.69
2023-04-19T12:59:20.375Z,101909.22
2023-04-19T13:01:48.168Z,101894.75
2023-04-19T13:04:17.674Z,101883.56
2023-04-19T13:06:45.907Z,101895.09
2023-04-19T13:09:15.034Z,101888.16
2023-04-19T13:11:43.056Z,101874.59
2023-04-19T13:14:10.811Z,101881.97
2023-04-19T13:16:38.478Z,101883.53
2023-04-19T13:19:06.374Z,101874.72
2023-04-19T13:21:35.430Z,101872.78
2023-04-19T13:24:03.209Z,101871.63
2023-04-19T13:26:31.095Z,101858.75
2023-04-19T13:28:58.784Z,101861.72
2023-04-19T13:31:26.990Z,101847.72
2023-04-19T13:33:55.070Z,101854.75
2023-04-19T13:36:22.977Z,101855.84
2023-04-19T13:38:52.021Z,101838.22
2023-04-19T13:41:19.800Z,101839.00
2023-04-19T13:43:47.840Z,101834.75
2023-04-19T13:46:15.725Z,101833.25
2023-04-19T13:48:43.404Z,101832.59
2023-04-19T13:51:11.140Z,101829.66
2023-04-19T13:53:40.780Z,101826.41
2023-04-19T13:56:10.840Z,101817.88
2023-04-19T13:58:38.771Z,101823.75
2023-04-19T14:01:06.796Z,101814.47
2023-04-19T14:03:34.824Z,101812.91
2023-04-19T14:06:02.779Z,101801.59
2023-04-19T14:08:30.469Z,101801.00
2023-04-19T14:10:58.219Z,101799.56
2023-04-19T14:13:27.992Z,101799.53
2023-04-19T14:15:55.697Z,101795.06
2023-04-19T14:18:23.412Z,101796.47
2023-04-19T14:20:51.109Z,101796.13
2023-04-19T14:23:18.873Z,101789.75
2023-04-19T14:25:46.621Z,101771.97
2023-04-19T14:28:14.409Z,101782.63
2023-04-19T14:30:43.471Z,101769.69
2023-04-19T14:33:11.391Z,101786.53
2023-04-19T14:35:39.224Z,101753.09
2023-04-19T14:38:06.879Z,101767.22
2023-04-19T14:40:34.795Z,101777.34
2023-04-19T14:43:02.572Z,101764.28
2023-04-19T14:45:30.399Z,101738.94
2023-04-19T14:47:59.581Z,101750.56
2023-04-19T14:50:27.424Z,101740.59
2023-04-19T14:52:55.209Z,101758.53
2023-04-19T14:55:24.973Z,101749.88
2023-04-19T14:57:52.682Z,101751.31
2023-04-19T15:00:20.884Z,101735.97
2023-04-19T15:02:48.713Z,101740.25
2023-04-19T15:05:18.005Z,101738.63
2023-04-19T15:07:45.813Z,101734.66
2023-04-19T15:10:13.855Z,101736.16
2023-04-19T15:12:41.512Z,101736.81
2023-04-19T15:15:09.920Z,101733.16
2023-04-19T15:17:37.769Z,101719.34
2023-04-19T15:20:06.619Z,101720.56
2023-04-19T15:22:35.837Z,101702.56
2023-04-19T15:25:03.569Z,101728.25
2023-04-19T15:27:31.395Z,101740.94
2023-04-19T15:29:59.363Z,101737.41
2023-04-19T15:32:29.029Z,101728.81
2023-04-19T15:34:56.813Z,101718.06
2023-04-19T15:37:24.584Z,101712.34
2023-04-19T15:39:53.720Z,101711.13
2023-04-19T15:42:21.483Z,101714.97
2023-04-19T15:44:49.272Z,101724.84
2023-04-19T15:47:17.298Z,101696.44
2023-04-19T15:49:47.342Z,101705.50
2023-04-19T15:52:15.257Z,101728.16
2023-04-19T15:54:42.973Z,101710.09
2023-04-19T15:57:12.084Z,101716.28
2023-04-19T15:59:39.807Z,101724.75
2023-04-19T16:02:08.046Z,101704.94
2023-04-19T16:04:37.009Z,101716.75
2023-04-19T16:07:04.949Z,101729.81
2023-04-19T16:09:32.695Z,101717.41
2023-04-19T16:12:00.843Z,101716.44
2023-04-19T16:14:29.916Z,101711.84
2023-04-19T16:16:57.903Z,101709.53
2023-04-19T16:19:25.842Z,101719.63
2023-04-19T16:21:53.588Z,101721.06
2023-04-19T16:24:21.320Z,101710.91
2023-04-19T16:26:49.121Z,101706.53
2023-04-19T16:29:17.118Z,101707.56
2023-04-19T16:31:47.573Z,101712.06
2023-04-19T16:34:16.724Z,101700.66
2023-04-19T16:36:45.547Z,101719.19
2023-04-19T16:39:13.506Z,101707.59
2023-04-19T16:41:41.257Z,101712.63
2023-04-19T16:44:08.983Z,101715.25
2023-04-19T16:46:36.835Z,101706.78
2023-04-19T16:49:06.016Z,101712.53
2023-04-19T16:51:33.762Z,101702.03
2023-04-19T16:54:01.407Z,101694.25
2023-04-19T16:56:29.159Z,101704.28
2023-04-19T16:58:56.863Z,101703.28
2023-04-19T17:01:24.918Z,101700.09
2023-04-19T17:03:52.966Z,101713.75
2023-04-19T17:06:22.115Z,101683.09
2023-04-19T17:08:49.792Z,101690.50
2023-04-19T17:11:17.499Z,101712.53
2023-04-19T17:13:45.249Z,101700.00
2023-04-19T17:16:13.047Z,101701.03
2023-04-19T17:18:41.016Z,101711.94
2023-04-19T17:21:08.858Z,101720.81
2023-04-19T17:23:37.960Z,101702.03
2023-04-19T17:26:06.010Z,101680.78
2023-04-19T17:28:33.756Z,101728.28
2023-04-19T17:31:01.622Z,101708.66
2023-04-19T17:33:29.370Z,101719.72
2023-04-19T17:35:57.158Z,101712.69
2023-04-19T17:38:24.930Z,101720.81
2023-04-19T17:40:54.033Z,101706.88
2023-04-19T17:43:21.878Z,101710.25
2023-04-19T17:45:49.532Z,101713.84
2023-04-19T17:48:17.268Z,101717.47
2023-04-19T17:50:45.018Z,101704.50
2023-04-19T17:53:12.856Z,101736.22
2023-04-19T17:55:40.729Z,101719.44
2023-04-19T17:58:09.837Z,101721.13
2023-04-19T18:00:37.687Z,101735.38
2023-04-19T18:03:07.032Z,101729.91
2023-04-19T18:05:34.794Z,101732.38
2023-04-19T18:08:02.463Z,101719.00
2023-04-19T18:10:30.547Z,101729.03
2023-04-19T18:12:58.404Z,101732.00
2023-04-19T18:15:27.420Z,101734.03
2023-04-19T18:17:55.175Z,101742.00
2023-04-19T18:20:22.954Z,101733.53
2023-04-19T18:22:51.071Z,101737.91
2023-04-19T18:25:19.224Z,101741.44
2023-04-19T18:27:46.964Z,101741.97
2023-04-19T18:30:14.972Z,101751.16
2023-04-19T18:32:44.093Z,101748.56
2023-04-19T18:35:12.386Z,101749.16
2023-04-19T18:37:40.185Z,101760.06
2023-04-19T18:40:09.196Z,101767.22
2023-04-19T18:42:36.952Z,101749.97
2023-04-19T18:45:05.193Z,101767.56
2023-04-19T18:47:32.911Z,101761.91
2023-04-19T18:50:05.232Z,101770.63
2023-04-19T18:52:35.373Z,101772.00
2023-04-19T18:55:03.373Z,101776.34
2023-04-19T18:57:34.679Z,101778.69
2023-04-19T19:00:05.448Z,101774.75
2023-04-19T19:02:36.081Z,101785.16
2023-04-19T19:05:07.363Z,101789.97
2023-04-19T19:07:37.105Z,101797.03
2023-04-19T19:10:15.946Z,101797.59
2023-04-19T19:12:46.908Z,101806.19
2023-04-19T19:15:15.018Z,101805.22
2023-04-19T19:17:43.227Z,101802.00
2023-04-19T19:20:13.203Z,101801.13
2023-04-19T19:22:40.896Z,101804.03
2023-04-19T19:25:09.225Z,101795.13
2023-04-19T19:27:37.709Z,101805.78
2023-04-19T19:30:07.682Z,101807.38
2023-04-19T19:32:35.584Z,101791.56
2023-04-19T19:35:06.426Z,101801.59
2023-04-19T19:37:37.490Z,101789.63
2023-04-19T19:40:07.281Z,101799.00
2023-04-19T19:42:35.488Z,101800.13
2023-04-19T19:45:04.172Z,101789.34
2023-04-19T19:47:35.159Z,101804.06
2023-04-19T19:52:35.960Z,101799.78
2023-04-19T19:55:05.464Z,101788.13
2023-04-19T20:00:23.004Z,101800.59
2023-04-19T20:02:55.931Z,101801.59
2023-04-19T20:05:24.627Z,101800.50
2023-04-19T20:08:02.078Z,101813.22
2023-04-19T20:10:34.238Z,101797.66
2023-04-19T20:13:02.340Z,101813.66
2023-04-19T20:15:31.011Z,101803.75
2023-04-19T20:17:58.773Z,101798.72
2023-04-19T20:20:26.619Z,101805.31
2023-04-19T20:22:54.263Z,101805.97
2023-04-19T20:25:22.068Z,101817.41
2023-04-19T20:27:51.133Z,101809.72
2023-04-19T20:30:18.913Z,101804.59
2023-04-19T20:32:48.440Z,101796.03
2023-04-19T20:35:16.270Z,101810.59
2023-04-19T20:37:44.449Z,101797.84
2023-04-19T20:40:14.530Z,101799.56
2023-04-19T20:42:43.376Z,101799.69
2023-04-19T20:45:14.286Z,101799.78
2023-04-19T20:47:42.850Z,101801.59
2023-04-19T20:50:11.314Z,101809.25
2023-04-19T20:52:39.198Z,101794.59
2023-04-19T20:55:07.999Z,101813.00
2023-04-19T20:57:35.897Z,101803.94
2023-04-19T21:00:04.823Z,101805.09
2023-04-19T21:02:34.077Z,101792.63
2023-04-19T21:05:01.899Z,101803.63
2023-04-19T21:07:29.630Z,101805.81
2023-04-19T21:09:57.340Z,101801.63
2023-04-19T21:12:25.125Z,101797.31
2023-04-19T21:14:53.544Z,101794.53
2023-04-19T21:17:21.680Z,101792.63
2023-04-19T21:19:50.807Z,101799.19
2023-04-19T21:22:18.613Z,101795.56
2023-04-19T21:24:46.402Z,101802.41
2023-04-19T21:27:14.116Z,101807.19
2023-04-19T21:29:41.838Z,101793.53
2023-04-19T21:32:09.609Z,101791.38
2023-04-19T21:34:38.298Z,101791.03
2023-04-19T21:37:07.489Z,101789.63
2023-04-19T21:39:35.180Z,101786.28
2023-04-19T21:42:02.889Z,101783.53
2023-04-19T21:44:30.613Z,101773.19
2023-04-19T21:46:58.394Z,101778.56
2023-04-19T21:49:26.214Z,101778.88
2023-04-19T21:51:53.958Z,101777.44
2023-04-19T21:54:32.815Z,101782.44
2023-04-19T21:57:01.888Z,101760.31
2023-04-19T21:59:29.702Z,101769.63
2023-04-19T22:01:57.522Z,101780.50
2023-04-19T22:04:25.321Z,101761.84
2023-04-19T22:06:53.884Z,101762.75
2023-04-19T22:09:22.907Z,101759.63
2023-04-19T22:11:51.260Z,101763.00
2023-04-19T22:14:18.928Z,101756.50
2023-04-19T22:16:48.505Z,101744.81
2023-04-19T22:19:16.865Z,101759.59
2023-04-19T22:21:44.712Z,101750.59
2023-04-19T22:24:12.453Z,101738.63
2023-04-19T22:26:41.543Z,101753.81
2023-04-19T22:29:09.377Z,101743.06
2023-04-19T22:31:37.050Z,101739.47
2023-04-19T22:34:04.866Z,101755.53
2023-04-19T22:36:33.015Z,101736.09
2023-04-19T22:39:00.730Z,101738.44
2023-04-19T22:41:28.456Z,101742.16
2023-04-19T22:43:57.539Z,101735.75
2023-04-19T22:46:25.250Z,101718.31
2023-04-19T22:48:52.934Z,101723.94
2023-04-19T22:51:20.687Z,101712.28
2023-04-19T22:53:48.367Z,101704.09
2023-04-19T22:56:17.746Z,101704.25
2023-04-19T22:58:45.589Z,101691.19
2023-04-19T23:01:14.684Z,101696.56
2023-04-19T23:03:42.422Z,101703.81
2023-04-19T23:06:10.122Z,101694.97
2023-04-19T23:08:40.309Z,101691.72
2023-04-19T23:11:10.050Z,101683.69
2023-04-19T23:13:38.125Z,101690.00
2023-04-19T23:16:06.563Z,101681.53
2023-04-19T23:18:36.157Z,101677.56
2023-04-19T23:21:04.290Z,101685.59
2023-04-19T23:23:31.936Z,101671.91
2023-04-19T23:25:59.653Z,101666.00
2023-04-19T23:28:27.391Z,101678.63
2023-04-19T23:30:55.206Z,101668.28
2023-04-19T23:33:22.917Z,101653.22
2023-04-19T23:35:52.048Z,101650.50
2023-04-19T23:38:20.320Z,101642.28
2023-04-19T23:40:48.073Z,101650.59
2023-04-19T23:43:15.803Z,101644.13
2023-04-19T23:45:43.515Z,101634.38
2023-04-19T23:48:11.297Z,101634.31
2023-04-19T23:50:38.995Z,101642.75
2023-04-19T23:53:08.141Z,101631.94
2023-04-19T23:55:35.800Z,101620.66
2023-04-19T23:58:03.555Z,101621.25
